sensor_id;sensor_type;location;lat;lon;timestamp;P1;durP1;ratioP1;P2;durP2;ratioP2
15716;SDS011;7960;50.908;4.204;2023-05-10T00:01:36;13.17;;;7.13;;
15716;SDS011;7960;50.908;4.204;2023-05-10T00:04:02;10.87;;;7.53;;
15716;SDS011;7960;50.908;4.204;2023-05-10T00:06:30;15.27;;;7.97;;
15716;SDS011;7960;50.908;4.204;2023-05-10T00:08:56;11.40;;;7.77;;
15716;SDS011;7960;50.908;4.204;2023-05-10T00:11:23;11.70;;;7.70;;
15716;SDS011;7960;50.908;4.204;2023-05-10T00:13:50;13.33;;;8.07;;
15716;SDS011;7960;50.908;4.204;2023-05-10T00:16:17;15.67;;;8.80;;
15716;SDS011;7960;50.908;4.204;2023-05-10T00:18:46;14.57;;;8.20;;
15716;SDS011;7960;50.908;4.204;2023-05-10T00:21:12;13.73;;;8.53;;
15716;SDS011;7960;50.908;4.204;2023-05-10T00:23:39;15.73;;;7.67;;
15716;SDS011;7960;50.908;4.204;2023-05-10T00:26:06;14.53;;;8.33;;
15716;SDS011;7960;50.908;4.204;2023-05-10T00:28:33;14.40;;;7.93;;
15716;SDS011;7960;50.908;4.204;2023-05-10T00:31:00;12.73;;;7.97;;
15716;SDS011;7960;50.908;4.204;2023-05-10T00:33:27;14.00;;;8.47;;
15716;SDS011;7960;50.908;4.204;2023-05-10T00:35:55;14.80;;;8.83;;
15716;SDS011;7960;50.908;4.204;2023-05-10T00:38:22;15.17;;;9.10;;
15716;SDS011;7960;50.908;4.204;2023-05-10T00:40:49;11.70;;;8.00;;
15716;SDS011;7960;50.908;4.204;2023-05-10T00:43:16;13.87;;;9.47;;
15716;SDS011;7960;50.908;4.204;2023-05-10T00:45:43;14.27;;;8.83;;
15716;SDS011;7960;50.908;4.204;2023-05-10T00:48:11;13.70;;;8.83;;
15716;SDS011;7960;50.908;4.204;2023-05-10T00:50:38;16.63;;;8.83;;
15716;SDS011;7960;50.908;4.204;2023-05-10T00:53:07;14.90;;;9.07;;
15716;SDS011;7960;50.908;4.204;2023-05-10T00:55:34;14.87;;;9.23;;
15716;SDS011;7960;50.908;4.204;2023-05-10T00:58:01;14.43;;;9.00;;
15716;SDS011;7960;50.908;4.204;2023-05-10T01:00:28;13.03;;;8.67;;
15716;SDS011;7960;50.908;4.204;2023-05-10T01:02:55;14.13;;;9.43;;
15716;SDS011;7960;50.908;4.204;2023-05-10T01:05:23;14.93;;;9.20;;
15716;SDS011;7960;50.908;4.204;2023-05-10T01:07:49;14.17;;;9.17;;
15716;SDS011;7960;50.908;4.204;2023-05-10T01:10:18;13.53;;;9.60;;
15716;SDS011;7960;50.908;4.204;2023-05-10T01:12:46;13.63;;;9.73;;
15716;SDS011;7960;50.908;4.204;2023-05-10T01:15:13;14.97;;;9.80;;
15716;SDS011;7960;50.908;4.204;2023-05-10T01:17:43;16.73;;;9.73;;
15716;SDS011;7960;50.908;4.204;2023-05-10T01:20:11;13.40;;;9.57;;
15716;SDS011;7960;50.908;4.204;2023-05-10T01:22:47;19.63;;;10.67;;
15716;SDS011;7960;50.908;4.204;2023-05-10T01:25:45;16.03;;;10.40;;
15716;SDS011;7960;50.908;4.204;2023-05-10T01:28:39;15.80;;;10.53;;
15716;SDS011;7960;50.908;4.204;2023-05-10T01:31:30;14.83;;;10.13;;
15716;SDS011;7960;50.908;4.204;2023-05-10T01:34:08;15.00;;;10.47;;
15716;SDS011;7960;50.908;4.204;2023-05-10T01:36:40;17.67;;;11.30;;
15716;SDS011;7960;50.908;4.204;2023-05-10T01:39:13;15.73;;;10.33;;
15716;SDS011;7960;50.908;4.204;2023-05-10T01:41:51;15.50;;;9.93;;
15716;SDS011;7960;50.908;4.204;2023-05-10T01:44:24;17.90;;;10.00;;
15716;SDS011;7960;50.908;4.204;2023-05-10T01:46:58;16.93;;;10.00;;
15716;SDS011;7960;50.908;4.204;2023-05-10T01:49:33;17.30;;;10.97;;
15716;SDS011;7960;50.908;4.204;2023-05-10T01:52:06;18.03;;;11.00;;
15716;SDS011;7960;50.908;4.204;2023-05-10T01:54:37;17.80;;;11.17;;
15716;SDS011;7960;50.908;4.204;2023-05-10T01:57:07;17.60;;;12.20;;
15716;SDS011;7960;50.908;4.204;2023-05-10T01:59:38;18.57;;;11.77;;
15716;SDS011;7960;50.908;4.204;2023-05-10T02:02:09;16.93;;;11.57;;
15716;SDS011;7960;50.908;4.204;2023-05-10T02:04:39;20.90;;;11.60;;
15716;SDS011;7960;50.908;4.204;2023-05-10T02:07:08;20.20;;;11.67;;
15716;SDS011;7960;50.908;4.204;2023-05-10T02:09:36;16.93;;;11.23;;
15716;SDS011;7960;50.908;4.204;2023-05-10T02:12:04;18.57;;;11.93;;
15716;SDS011;7960;50.908;4.204;2023-05-10T02:14:34;20.33;;;13.07;;
15716;SDS011;7960;50.908;4.204;2023-05-10T02:17:03;20.60;;;12.93;;
15716;SDS011;7960;50.908;4.204;2023-05-10T02:19:32;19.23;;;12.63;;
15716;SDS011;7960;50.908;4.204;2023-05-10T02:22:01;19.80;;;12.70;;
15716;SDS011;7960;50.908;4.204;2023-05-10T02:24:29;18.33;;;12.43;;
15716;SDS011;7960;50.908;4.204;2023-05-10T02:26:58;20.07;;;13.37;;
15716;SDS011;7960;50.908;4.204;2023-05-10T02:29:26;18.97;;;13.30;;
15716;SDS011;7960;50.908;4.204;2023-05-10T02:31:54;18.90;;;13.20;;
15716;SDS011;7960;50.908;4.204;2023-05-10T02:34:22;19.97;;;12.97;;
15716;SDS011;7960;50.908;4.204;2023-05-10T02:36:51;22.53;;;13.90;;
15716;SDS011;7960;50.908;4.204;2023-05-10T02:39:20;20.83;;;12.90;;
15716;SDS011;7960;50.908;4.204;2023-05-10T02:41:48;20.07;;;13.03;;
15716;SDS011;7960;50.908;4.204;2023-05-10T02:44:17;23.20;;;13.70;;
15716;SDS011;7960;50.908;4.204;2023-05-10T02:46:46;22.53;;;13.83;;
15716;SDS011;7960;50.908;4.204;2023-05-10T02:49:13;21.33;;;14.10;;
15716;SDS011;7960;50.908;4.204;2023-05-10T02:51:41;23.73;;;14.17;;
15716;SDS011;7960;50.908;4.204;2023-05-10T02:54:12;24.07;;;14.00;;
15716;SDS011;7960;50.908;4.204;2023-05-10T02:56:46;21.13;;;13.63;;
15716;SDS011;7960;50.908;4.204;2023-05-10T02:59:19;23.80;;;14.30;;
15716;SDS011;7960;50.908;4.204;2023-05-10T03:01:46;26.17;;;14.40;;
15716;SDS011;7960;50.908;4.204;2023-05-10T03:04:13;22.53;;;15.33;;
15716;SDS011;7960;50.908;4.204;2023-05-10T03:06:40;23.77;;;14.90;;
15716;SDS011;7960;50.908;4.204;2023-05-10T03:09:07;23.47;;;14.43;;
15716;SDS011;7960;50.908;4.204;2023-05-10T03:11:39;25.07;;;15.43;;
15716;SDS011;7960;50.908;4.204;2023-05-10T03:14:21;21.17;;;14.23;;
15716;SDS011;7960;50.908;4.204;2023-05-10T03:16:56;28.53;;;15.83;;
15716;SDS011;7960;50.908;4.204;2023-05-10T03:19:27;25.47;;;15.57;;
15716;SDS011;7960;50.908;4.204;2023-05-10T03:21:59;27.27;;;15.53;;
15716;SDS011;7960;50.908;4.204;2023-05-10T03:24:29;24.77;;;16.77;;
15716;SDS011;7960;50.908;4.204;2023-05-10T03:26:59;23.90;;;15.77;;
15716;SDS011;7960;50.908;4.204;2023-05-10T03:29:27;27.97;;;16.20;;
15716;SDS011;7960;50.908;4.204;2023-05-10T03:31:55;24.33;;;15.53;;
15716;SDS011;7960;50.908;4.204;2023-05-10T03:34:24;23.63;;;15.20;;
15716;SDS011;7960;50.908;4.204;2023-05-10T03:36:51;24.53;;;15.37;;
15716;SDS011;7960;50.908;4.204;2023-05-10T03:39:18;29.00;;;16.10;;
15716;SDS011;7960;50.908;4.204;2023-05-10T03:41:46;27.60;;;15.83;;
15716;SDS011;7960;50.908;4.204;2023-05-10T03:44:14;26.23;;;16.93;;
15716;SDS011;7960;50.908;4.204;2023-05-10T03:46:41;27.13;;;16.37;;
15716;SDS011;7960;50.908;4.204;2023-05-10T03:49:08;27.50;;;16.40;;
15716;SDS011;7960;50.908;4.204;2023-05-10T03:51:35;25.80;;;16.10;;
15716;SDS011;7960;50.908;4.204;2023-05-10T03:54:02;26.37;;;16.00;;
15716;SDS011;7960;50.908;4.204;2023-05-10T03:56:29;24.70;;;15.47;;
15716;SDS011;7960;50.908;4.204;2023-05-10T03:58:56;27.43;;;15.83;;
15716;SDS011;7960;50.908;4.204;2023-05-10T04:01:24;27.33;;;16.03;;
15716;SDS011;7960;50.908;4.204;2023-05-10T04:03:51;26.43;;;17.27;;
15716;SDS011;7960;50.908;4.204;2023-05-10T04:06:18;25.47;;;16.70;;
15716;SDS011;7960;50.908;4.204;2023-05-10T04:08:45;24.13;;;16.60;;
15716;SDS011;7960;50.908;4.204;2023-05-10T04:11:11;27.23;;;16.40;;
15716;SDS011;7960;50.908;4.204;2023-05-10T04:13:39;29.70;;;16.77;;
15716;SDS011;7960;50.908;4.204;2023-05-10T04:16:06;29.97;;;17.17;;
15716;SDS011;7960;50.908;4.204;2023-05-10T04:18:34;26.40;;;16.63;;
15716;SDS011;7960;50.908;4.204;2023-05-10T04:21:01;28.07;;;17.30;;
15716;SDS011;7960;50.908;4.204;2023-05-10T04:23:28;24.57;;;16.70;;
15716;SDS011;7960;50.908;4.204;2023-05-10T04:25:58;25.77;;;16.73;;
15716;SDS011;7960;50.908;4.204;2023-05-10T04:28:26;26.97;;;17.00;;
15716;SDS011;7960;50.908;4.204;2023-05-10T04:30:53;29.97;;;17.43;;
15716;SDS011;7960;50.908;4.204;2023-05-10T04:33:27;27.70;;;17.50;;
15716;SDS011;7960;50.908;4.204;2023-05-10T04:35:55;24.23;;;17.87;;
15716;SDS011;7960;50.908;4.204;2023-05-10T04:38:22;25.90;;;17.63;;
15716;SDS011;7960;50.908;4.204;2023-05-10T04:40:49;27.50;;;18.37;;
15716;SDS011;7960;50.908;4.204;2023-05-10T04:43:16;31.70;;;18.23;;
15716;SDS011;7960;50.908;4.204;2023-05-10T04:45:43;29.17;;;18.87;;
15716;SDS011;7960;50.908;4.204;2023-05-10T04:48:10;26.40;;;17.37;;
15716;SDS011;7960;50.908;4.204;2023-05-10T04:50:37;27.13;;;18.07;;
15716;SDS011;7960;50.908;4.204;2023-05-10T04:53:06;27.13;;;17.90;;
15716;SDS011;7960;50.908;4.204;2023-05-10T04:55:33;27.47;;;18.17;;
15716;SDS011;7960;50.908;4.204;2023-05-10T04:58:00;27.53;;;18.50;;
15716;SDS011;7960;50.908;4.204;2023-05-10T05:00:27;26.63;;;18.13;;
15716;SDS011;7960;50.908;4.204;2023-05-10T05:02:54;29.83;;;18.13;;
15716;SDS011;7960;50.908;4.204;2023-05-10T05:05:21;26.47;;;18.17;;
15716;SDS011;7960;50.908;4.204;2023-05-10T05:07:48;26.93;;;17.17;;
15716;SDS011;7960;50.908;4.204;2023-05-10T05:10:17;26.63;;;16.73;;
15716;SDS011;7960;50.908;4.204;2023-05-10T05:12:44;28.50;;;17.27;;
15716;SDS011;7960;50.908;4.204;2023-05-10T05:15:11;27.67;;;17.77;;
15716;SDS011;7960;50.908;4.204;2023-05-10T05:17:38;25.67;;;17.03;;
15716;SDS011;7960;50.908;4.204;2023-05-10T05:20:05;27.90;;;18.13;;
15716;SDS011;7960;50.908;4.204;2023-05-10T05:22:33;28.80;;;18.40;;
15716;SDS011;7960;50.908;4.204;2023-05-10T05:25:01;26.93;;;17.70;;
15716;SDS011;7960;50.908;4.204;2023-05-10T05:27:30;29.70;;;18.37;;
15716;SDS011;7960;50.908;4.204;2023-05-10T05:29:58;28.37;;;18.40;;
15716;SDS011;7960;50.908;4.204;2023-05-10T05:32:25;30.30;;;17.77;;
15716;SDS011;7960;50.908;4.204;2023-05-10T05:34:52;28.03;;;18.53;;
15716;SDS011;7960;50.908;4.204;2023-05-10T05:37:19;28.53;;;17.57;;
15716;SDS011;7960;50.908;4.204;2023-05-10T05:39:47;27.43;;;16.97;;
15716;SDS011;7960;50.908;4.204;2023-05-10T05:42:14;28.87;;;18.57;;
15716;SDS011;7960;50.908;4.204;2023-05-10T05:44:45;30.20;;;18.67;;
15716;SDS011;7960;50.908;4.204;2023-05-10T05:47:11;28.57;;;17.37;;
15716;SDS011;7960;50.908;4.204;2023-05-10T05:49:38;29.73;;;17.17;;
15716;SDS011;7960;50.908;4.204;2023-05-10T05:52:05;25.10;;;15.80;;
15716;SDS011;7960;50.908;4.204;2023-05-10T05:54:32;29.43;;;17.70;;
15716;SDS011;7960;50.908;4.204;2023-05-10T05:57:00;30.60;;;16.87;;
15716;SDS011;7960;50.908;4.204;2023-05-10T05:59:27;27.27;;;17.67;;
15716;SDS011;7960;50.908;4.204;2023-05-10T06:01:56;27.30;;;17.13;;
15716;SDS011;7960;50.908;4.204;2023-05-10T06:04:23;30.93;;;17.80;;
15716;SDS011;7960;50.908;4.204;2023-05-10T06:06:50;28.57;;;17.80;;
15716;SDS011;7960;50.908;4.204;2023-05-10T06:09:17;27.67;;;17.77;;
15716;SDS011;7960;50.908;4.204;2023-05-10T06:11:44;28.73;;;18.53;;
15716;SDS011;7960;50.908;4.204;2023-05-10T06:14:11;34.60;;;19.33;;
15716;SDS011;7960;50.908;4.204;2023-05-10T06:16:38;32.13;;;18.73;;
15716;SDS011;7960;50.908;4.204;2023-05-10T06:19:06;29.70;;;18.50;;
15716;SDS011;7960;50.908;4.204;2023-05-10T06:21:33;29.13;;;18.50;;
15716;SDS011;7960;50.908;4.204;2023-05-10T06:24:00;30.33;;;18.37;;
15716;SDS011;7960;50.908;4.204;2023-05-10T06:26:27;29.37;;;18.40;;
15716;SDS011;7960;50.908;4.204;2023-05-10T06:28:54;35.90;;;19.00;;
15716;SDS011;7960;50.908;4.204;2023-05-10T06:31:21;30.87;;;18.17;;
15716;SDS011;7960;50.908;4.204;2023-05-10T06:33:48;28.30;;;19.37;;
15716;SDS011;7960;50.908;4.204;2023-05-10T06:36:17;32.20;;;17.97;;
15716;SDS011;7960;50.908;4.204;2023-05-10T06:38:44;29.50;;;17.70;;
15716;SDS011;7960;50.908;4.204;2023-05-10T06:41:11;30.33;;;18.23;;
15716;SDS011;7960;50.908;4.204;2023-05-10T06:43:38;31.13;;;18.50;;
15716;SDS011;7960;50.908;4.204;2023-05-10T06:46:06;35.90;;;18.67;;
15716;SDS011;7960;50.908;4.204;2023-05-10T06:48:33;31.70;;;18.23;;
15716;SDS011;7960;50.908;4.204;2023-05-10T06:51:00;28.83;;;18.53;;
15716;SDS011;7960;50.908;4.204;2023-05-10T06:53:28;32.50;;;17.87;;
15716;SDS011;7960;50.908;4.204;2023-05-10T06:55:55;29.93;;;16.97;;
15716;SDS011;7960;50.908;4.204;2023-05-10T06:58:22;31.87;;;18.07;;
15716;SDS011;7960;50.908;4.204;2023-05-10T07:00:49;31.57;;;17.80;;
15716;SDS011;7960;50.908;4.204;2023-05-10T07:03:16;32.53;;;17.83;;
15716;SDS011;7960;50.908;4.204;2023-05-10T07:05:43;32.33;;;17.53;;
15716;SDS011;7960;50.908;4.204;2023-05-10T07:08:09;30.90;;;17.27;;
15716;SDS011;7960;50.908;4.204;2023-05-10T07:10:38;29.67;;;17.93;;
15716;SDS011;7960;50.908;4.204;2023-05-10T07:13:05;40.93;;;18.10;;
15716;SDS011;7960;50.908;4.204;2023-05-10T07:15:31;32.43;;;17.47;;
15716;SDS011;7960;50.908;4.204;2023-05-10T07:17:58;30.00;;;16.70;;
15716;SDS011;7960;50.908;4.204;2023-05-10T07:20:25;30.47;;;16.93;;
15716;SDS011;7960;50.908;4.204;2023-05-10T07:22:52;27.57;;;15.87;;
15716;SDS011;7960;50.908;4.204;2023-05-10T07:25:19;27.30;;;16.63;;
15716;SDS011;7960;50.908;4.204;2023-05-10T07:27:47;30.37;;;16.10;;
15716;SDS011;7960;50.908;4.204;2023-05-10T07:30:14;26.20;;;15.53;;
15716;SDS011;7960;50.908;4.204;2023-05-10T07:32:41;25.77;;;15.20;;
15716;SDS011;7960;50.908;4.204;2023-05-10T07:35:08;23.87;;;13.43;;
15716;SDS011;7960;50.908;4.204;2023-05-10T07:37:35;26.63;;;13.53;;
15716;SDS011;7960;50.908;4.204;2023-05-10T07:40:02;26.13;;;14.23;;
15716;SDS011;7960;50.908;4.204;2023-05-10T07:42:29;21.43;;;13.77;;
15716;SDS011;7960;50.908;4.204;2023-05-10T07:44:58;28.27;;;13.90;;
15716;SDS011;7960;50.908;4.204;2023-05-10T07:47:25;26.33;;;13.03;;
15716;SDS011;7960;50.908;4.204;2023-05-10T07:49:51;27.17;;;14.40;;
15716;SDS011;7960;50.908;4.204;2023-05-10T07:52:18;21.00;;;13.03;;
15716;SDS011;7960;50.908;4.204;2023-05-10T07:54:45;20.50;;;12.90;;
15716;SDS011;7960;50.908;4.204;2023-05-10T07:57:12;24.70;;;13.07;;
15716;SDS011;7960;50.908;4.204;2023-05-10T07:59:42;21.07;;;12.00;;
15716;SDS011;7960;50.908;4.204;2023-05-10T08:02:11;19.63;;;11.07;;
15716;SDS011;7960;50.908;4.204;2023-05-10T08:04:38;19.83;;;10.23;;
15716;SDS011;7960;50.908;4.204;2023-05-10T08:07:05;16.80;;;10.37;;
15716;SDS011;7960;50.908;4.204;2023-05-10T08:09:32;19.97;;;10.23;;
15716;SDS011;7960;50.908;4.204;2023-05-10T08:11:59;15.13;;;9.90;;
15716;SDS011;7960;50.908;4.204;2023-05-10T08:14:27;14.10;;;9.30;;
15716;SDS011;7960;50.908;4.204;2023-05-10T08:16:54;21.97;;;10.67;;
15716;SDS011;7960;50.908;4.204;2023-05-10T08:19:23;19.97;;;11.27;;
15716;SDS011;7960;50.908;4.204;2023-05-10T08:21:50;18.97;;;10.73;;
15716;SDS011;7960;50.908;4.204;2023-05-10T08:24:18;16.93;;;10.77;;
15716;SDS011;7960;50.908;4.204;2023-05-10T08:26:45;18.93;;;10.83;;
15716;SDS011;7960;50.908;4.204;2023-05-10T08:29:12;18.23;;;9.87;;
15716;SDS011;7960;50.908;4.204;2023-05-10T08:31:39;18.87;;;10.13;;
15716;SDS011;7960;50.908;4.204;2023-05-10T08:34:06;17.53;;;9.57;;
15716;SDS011;7960;50.908;4.204;2023-05-10T08:39:03;17.47;;;9.80;;
15716;SDS011;7960;50.908;4.204;2023-05-10T08:41:30;17.43;;;10.33;;
15716;SDS011;7960;50.908;4.204;2023-05-10T08:44:00;15.70;;;9.40;;
15716;SDS011;7960;50.908;4.204;2023-05-10T08:46:30;15.80;;;9.90;;
15716;SDS011;7960;50.908;4.204;2023-05-10T08:48:59;15.17;;;10.00;;
15716;SDS011;7960;50.908;4.204;2023-05-10T08:51:31;15.07;;;10.27;;
15716;SDS011;7960;50.908;4.204;2023-05-10T08:54:04;17.23;;;9.10;;
15716;SDS011;7960;50.908;4.204;2023-05-10T08:56:31;15.17;;;9.67;;
15716;SDS011;7960;50.908;4.204;2023-05-10T08:58:58;16.13;;;9.47;;
15716;SDS011;7960;50.908;4.204;2023-05-10T09:01:26;21.40;;;10.17;;
15716;SDS011;7960;50.908;4.204;2023-05-10T09:03:53;15.80;;;9.90;;
15716;SDS011;7960;50.908;4.204;2023-05-10T09:06:21;15.17;;;8.97;;
15716;SDS011;7960;50.908;4.204;2023-05-10T09:08:48;16.70;;;9.80;;
15716;SDS011;7960;50.908;4.204;2023-05-10T09:11:17;16.07;;;9.63;;
15716;SDS011;7960;50.908;4.204;2023-05-10T09:13:46;14.47;;;9.10;;
15716;SDS011;7960;50.908;4.204;2023-05-10T09:16:14;15.13;;;9.53;;
15716;SDS011;7960;50.908;4.204;2023-05-10T09:18:41;14.13;;;9.23;;
15716;SDS011;7960;50.908;4.204;2023-05-10T09:21:08;13.70;;;9.13;;
15716;SDS011;7960;50.908;4.204;2023-05-10T09:23:36;16.17;;;9.60;;
15716;SDS011;7960;50.908;4.204;2023-05-10T09:26:04;17.50;;;10.20;;
15716;SDS011;7960;50.908;4.204;2023-05-10T09:28:33;16.63;;;8.73;;
15716;SDS011;7960;50.908;4.204;2023-05-10T09:31:00;16.03;;;9.60;;
15716;SDS011;7960;50.908;4.204;2023-05-10T09:33:27;15.23;;;9.77;;
15716;SDS011;7960;50.908;4.204;2023-05-10T09:35:54;17.67;;;9.53;;
15716;SDS011;7960;50.908;4.204;2023-05-10T09:38:21;17.40;;;9.90;;
15716;SDS011;7960;50.908;4.204;2023-05-10T09:40:51;13.90;;;9.80;;
15716;SDS011;7960;50.908;4.204;2023-05-10T09:43:20;13.57;;;8.70;;
15716;SDS011;7960;50.908;4.204;2023-05-10T09:45:49;16.83;;;9.60;;
15716;SDS011;7960;50.908;4.204;2023-05-10T09:48:16;13.73;;;9.50;;
15716;SDS011;7960;50.908;4.204;2023-05-10T09:50:42;12.80;;;8.90;;
15716;SDS011;7960;50.908;4.204;2023-05-10T09:53:09;14.67;;;9.53;;
15716;SDS011;7960;50.908;4.204;2023-05-10T09:55:42;11.87;;;8.20;;
15716;SDS011;7960;50.908;4.204;2023-05-10T09:58:11;11.13;;;7.70;;
15716;SDS011;7960;50.908;4.204;2023-05-10T10:00:38;10.00;;;7.33;;
15716;SDS011;7960;50.908;4.204;2023-05-10T10:03:11;9.57;;;6.93;;
15716;SDS011;7960;50.908;4.204;2023-05-10T10:05:40;9.73;;;7.13;;
15716;SDS011;7960;50.908;4.204;2023-05-10T10:08:07;10.33;;;7.20;;
15716;SDS011;7960;50.908;4.204;2023-05-10T10:10:34;11.03;;;7.23;;
15716;SDS011;7960;50.908;4.204;2023-05-10T10:13:02;12.93;;;7.43;;
15716;SDS011;7960;50.908;4.204;2023-05-10T10:15:29;11.27;;;7.87;;
15716;SDS011;7960;50.908;4.204;2023-05-10T10:17:58;13.00;;;8.47;;
15716;SDS011;7960;50.908;4.204;2023-05-10T10:20:27;10.50;;;7.80;;
15716;SDS011;7960;50.908;4.204;2023-05-10T10:22:54;12.90;;;8.63;;
15716;SDS011;7960;50.908;4.204;2023-05-10T10:25:21;13.30;;;8.70;;
15716;SDS011;7960;50.908;4.204;2023-05-10T10:27:54;13.40;;;8.37;;
15716;SDS011;7960;50.908;4.204;2023-05-10T10:30:28;14.80;;;8.80;;
15716;SDS011;7960;50.908;4.204;2023-05-10T10:33:10;20.23;;;15.20;;
15716;SDS011;7960;50.908;4.204;2023-05-10T10:35:51;10.90;;;8.80;;
15716;SDS011;7960;50.908;4.204;2023-05-10T10:38:19;11.60;;;7.73;;
15716;SDS011;7960;50.908;4.204;2023-05-10T10:40:47;14.00;;;8.67;;
15716;SDS011;7960;50.908;4.204;2023-05-10T10:43:21;11.50;;;8.00;;
15716;SDS011;7960;50.908;4.204;2023-05-10T10:48:36;10.90;;;8.53;;
15716;SDS011;7960;50.908;4.204;2023-05-10T10:51:04;12.03;;;8.53;;
15716;SDS011;7960;50.908;4.204;2023-05-10T10:53:31;11.47;;;8.23;;
15716;SDS011;7960;50.908;4.204;2023-05-10T10:56:05;11.70;;;8.90;;
15716;SDS011;7960;50.908;4.204;2023-05-10T10:58:34;15.03;;;8.73;;
15716;SDS011;7960;50.908;4.204;2023-05-10T11:01:12;13.53;;;8.93;;
15716;SDS011;7960;50.908;4.204;2023-05-10T11:03:40;12.60;;;9.10;;
15716;SDS011;7960;50.908;4.204;2023-05-10T11:06:29;16.13;;;9.60;;
15716;SDS011;7960;50.908;4.204;2023-05-10T11:08:58;11.43;;;9.03;;
15716;SDS011;7960;50.908;4.204;2023-05-10T11:11:25;15.17;;;9.27;;
15716;SDS011;7960;50.908;4.204;2023-05-10T11:13:52;13.43;;;9.03;;
15716;SDS011;7960;50.908;4.204;2023-05-10T11:16:28;16.30;;;9.97;;
15716;SDS011;7960;50.908;4.204;2023-05-10T11:19:07;22.73;;;10.77;;
15716;SDS011;7960;50.908;4.204;2023-05-10T11:21:45;16.83;;;10.53;;
15716;SDS011;7960;50.908;4.204;2023-05-10T11:24:14;14.73;;;10.40;;
15716;SDS011;7960;50.908;4.204;2023-05-10T11:26:42;15.30;;;10.13;;
15716;SDS011;7960;50.908;4.204;2023-05-10T11:29:09;16.67;;;10.03;;
15716;SDS011;7960;50.908;4.204;2023-05-10T11:31:41;16.17;;;10.13;;
15716;SDS011;7960;50.908;4.204;2023-05-10T11:34:10;16.23;;;10.40;;
15716;SDS011;7960;50.908;4.204;2023-05-10T11:36:37;15.33;;;10.17;;
15716;SDS011;7960;50.908;4.204;2023-05-10T11:39:06;12.73;;;9.37;;
15716;SDS011;7960;50.908;4.204;2023-05-10T11:41:33;14.90;;;10.33;;
15716;SDS011;7960;50.908;4.204;2023-05-10T11:44:00;13.50;;;10.07;;
15716;SDS011;7960;50.908;4.204;2023-05-10T11:46:28;14.90;;;9.83;;
15716;SDS011;7960;50.908;4.204;2023-05-10T11:48:56;13.20;;;9.17;;
15716;SDS011;7960;50.908;4.204;2023-05-10T11:51:26;16.33;;;8.97;;
15716;SDS011;7960;50.908;4.204;2023-05-10T11:53:54;12.57;;;9.07;;
15716;SDS011;7960;50.908;4.204;2023-05-10T11:56:23;13.10;;;9.40;;
15716;SDS011;7960;50.908;4.204;2023-05-10T11:58:54;12.70;;;9.67;;
15716;SDS011;7960;50.908;4.204;2023-05-10T12:01:22;12.47;;;9.13;;
15716;SDS011;7960;50.908;4.204;2023-05-10T12:03:50;14.30;;;9.20;;
15716;SDS011;7960;50.908;4.204;2023-05-10T12:06:18;13.43;;;9.20;;
15716;SDS011;7960;50.908;4.204;2023-05-10T12:08:46;14.13;;;8.93;;
15716;SDS011;7960;50.908;4.204;2023-05-10T12:11:17;12.77;;;9.80;;
15716;SDS011;7960;50.908;4.204;2023-05-10T12:13:47;15.23;;;10.03;;
15716;SDS011;7960;50.908;4.204;2023-05-10T12:16:17;14.37;;;9.63;;
15716;SDS011;7960;50.908;4.204;2023-05-10T12:18:47;15.00;;;10.00;;
15716;SDS011;7960;50.908;4.204;2023-05-10T12:21:16;11.90;;;9.60;;
15716;SDS011;7960;50.908;4.204;2023-05-10T12:23:45;16.40;;;9.60;;
15716;SDS011;7960;50.908;4.204;2023-05-10T12:26:12;13.40;;;8.90;;
15716;SDS011;7960;50.908;4.204;2023-05-10T12:28:39;15.33;;;9.67;;
15716;SDS011;7960;50.908;4.204;2023-05-10T12:31:07;14.13;;;9.63;;
15716;SDS011;7960;50.908;4.204;2023-05-10T12:33:35;13.40;;;9.97;;
15716;SDS011;7960;50.908;4.204;2023-05-10T12:36:04;14.43;;;9.77;;
15716;SDS011;7960;50.908;4.204;2023-05-10T12:38:32;16.13;;;10.53;;
15716;SDS011;7960;50.908;4.204;2023-05-10T12:41:01;11.73;;;9.50;;
15716;SDS011;7960;50.908;4.204;2023-05-10T12:43:29;14.23;;;10.57;;
15716;SDS011;7960;50.908;4.204;2023-05-10T12:45:57;14.13;;;9.73;;
15716;SDS011;7960;50.908;4.204;2023-05-10T12:48:25;16.83;;;10.27;;
15716;SDS011;7960;50.908;4.204;2023-05-10T12:50:53;11.83;;;9.60;;
15716;SDS011;7960;50.908;4.204;2023-05-10T12:53:20;14.00;;;10.47;;
15716;SDS011;7960;50.908;4.204;2023-05-10T12:55:47;27.87;;;10.40;;
15716;SDS011;7960;50.908;4.204;2023-05-10T12:58:14;12.73;;;10.07;;
15716;SDS011;7960;50.908;4.204;2023-05-10T13:00:41;12.83;;;9.87;;
15716;SDS011;7960;50.908;4.204;2023-05-10T13:03:08;14.70;;;11.00;;
15716;SDS011;7960;50.908;4.204;2023-05-10T13:05:37;12.73;;;9.80;;
15716;SDS011;7960;50.908;4.204;2023-05-10T13:08:04;13.33;;;10.47;;
15716;SDS011;7960;50.908;4.204;2023-05-10T13:10:31;13.33;;;9.83;;
15716;SDS011;7960;50.908;4.204;2023-05-10T13:12:58;16.03;;;11.13;;
15716;SDS011;7960;50.908;4.204;2023-05-10T13:15:25;16.37;;;11.20;;
15716;SDS011;7960;50.908;4.204;2023-05-10T13:17:52;14.80;;;11.30;;
15716;SDS011;7960;50.908;4.204;2023-05-10T13:20:20;13.63;;;10.43;;
15716;SDS011;7960;50.908;4.204;2023-05-10T13:22:48;16.60;;;11.87;;
15716;SDS011;7960;50.908;4.204;2023-05-10T13:25:15;15.77;;;11.47;;
15716;SDS011;7960;50.908;4.204;2023-05-10T13:27:42;19.17;;;12.23;;
15716;SDS011;7960;50.908;4.204;2023-05-10T13:30:09;17.67;;;13.13;;
15716;SDS011;7960;50.908;4.204;2023-05-10T13:32:37;15.97;;;11.53;;
15716;SDS011;7960;50.908;4.204;2023-05-10T13:35:05;16.40;;;12.23;;
15716;SDS011;7960;50.908;4.204;2023-05-10T13:37:32;16.53;;;11.80;;
15716;SDS011;7960;50.908;4.204;2023-05-10T13:40:04;15.63;;;12.13;;
15716;SDS011;7960;50.908;4.204;2023-05-10T13:42:32;15.97;;;11.80;;
15716;SDS011;7960;50.908;4.204;2023-05-10T13:44:59;16.33;;;11.27;;
15716;SDS011;7960;50.908;4.204;2023-05-10T13:47:26;15.83;;;11.47;;
15716;SDS011;7960;50.908;4.204;2023-05-10T13:49:53;14.03;;;11.20;;
15716;SDS011;7960;50.908;4.204;2023-05-10T13:52:21;18.17;;;12.20;;
15716;SDS011;7960;50.908;4.204;2023-05-10T13:54:48;15.57;;;11.67;;
15716;SDS011;7960;50.908;4.204;2023-05-10T13:57:18;16.03;;;12.13;;
15716;SDS011;7960;50.908;4.204;2023-05-10T13:59:45;14.73;;;12.43;;
15716;SDS011;7960;50.908;4.204;2023-05-10T14:02:12;15.10;;;12.20;;
15716;SDS011;7960;50.908;4.204;2023-05-10T14:04:39;16.40;;;12.67;;
15716;SDS011;7960;50.908;4.204;2023-05-10T14:07:06;16.17;;;12.50;;
15716;SDS011;7960;50.908;4.204;2023-05-10T14:09:33;16.00;;;12.20;;
15716;SDS011;7960;50.908;4.204;2023-05-10T14:11:59;14.73;;;12.13;;
15716;SDS011;7960;50.908;4.204;2023-05-10T14:14:28;16.00;;;12.67;;
15716;SDS011;7960;50.908;4.204;2023-05-10T14:16:55;17.70;;;12.87;;
15716;SDS011;7960;50.908;4.204;2023-05-10T14:19:22;20.03;;;13.17;;
15716;SDS011;7960;50.908;4.204;2023-05-10T14:21:49;17.67;;;12.93;;
15716;SDS011;7960;50.908;4.204;2023-05-10T14:24:17;15.93;;;12.10;;
15716;SDS011;7960;50.908;4.204;2023-05-10T14:26:43;16.43;;;13.03;;
15716;SDS011;7960;50.908;4.204;2023-05-10T14:29:10;14.43;;;12.13;;
15716;SDS011;7960;50.908;4.204;2023-05-10T14:31:39;16.13;;;12.30;;
15716;SDS011;7960;50.908;4.204;2023-05-10T14:34:06;17.80;;;12.40;;
15716;SDS011;7960;50.908;4.204;2023-05-10T14:36:33;17.07;;;12.73;;
15716;SDS011;7960;50.908;4.204;2023-05-10T14:39:00;19.97;;;13.87;;
15716;SDS011;7960;50.908;4.204;2023-05-10T14:41:27;15.40;;;13.20;;
15716;SDS011;7960;50.908;4.204;2023-05-10T14:43:55;18.97;;;13.60;;
15716;SDS011;7960;50.908;4.204;2023-05-10T14:46:22;17.00;;;13.30;;
15716;SDS011;7960;50.908;4.204;2023-05-10T14:48:50;15.47;;;11.73;;
15716;SDS011;7960;50.908;4.204;2023-05-10T14:51:17;16.03;;;12.30;;